sensor_id;sensor_type;location;lat;lon;timestamp;P1;durP1;ratioP1;P2;durP2;ratioP2
55007;SDS011;40902;45.116;21.296;2024-03-29T00:01:18;5.72;;;1.95;;
55007;SDS011;40902;45.116;21.296;2024-03-29T00:03:44;4.82;;;2.22;;
55007;SDS011;40902;45.116;21.296;2024-03-29T00:06:11;4.45;;;1.92;;
55007;SDS011;40902;45.116;21.296;2024-03-29T00:08:37;3.97;;;2.00;;
55007;SDS011;40902;45.116;21.296;2024-03-29T00:11:04;6.95;;;2.50;;
55007;SDS011;40902;45.116;21.296;2024-03-29T00:13:30;5.35;;;2.10;;
55007;SDS011;40902;45.116;21.296;2024-03-29T00:15:57;4.45;;;1.90;;
55007;SDS011;40902;45.116;21.296;2024-03-29T00:18:23;5.00;;;2.17;;
55007;SDS011;40902;45.116;21.296;2024-03-29T00:20:49;6.60;;;2.38;;
55007;SDS011;40902;45.116;21.296;2024-03-29T00:23:15;8.05;;;2.42;;
55007;SDS011;40902;45.116;21.296;2024-03-29T00:25:42;6.30;;;2.40;;
55007;SDS011;40902;45.116;21.296;2024-03-29T00:28:08;3.80;;;1.88;;
55007;SDS011;40902;45.116;21.296;2024-03-29T00:30:34;6.45;;;2.63;;
55007;SDS011;40902;45.116;21.296;2024-03-29T00:33:00;5.90;;;2.42;;
55007;SDS011;40902;45.116;21.296;2024-03-29T00:35:27;5.57;;;2.17;;
55007;SDS011;40902;45.116;21.296;2024-03-29T00:37:53;7.35;;;2.45;;
55007;SDS011;40902;45.116;21.296;2024-03-29T00:40:19;8.45;;;2.58;;
55007;SDS011;40902;45.116;21.296;2024-03-29T00:42:45;4.70;;;2.45;;
55007;SDS011;40902;45.116;21.296;2024-03-29T00:45:11;7.45;;;2.47;;
55007;SDS011;40902;45.116;21.296;2024-03-29T00:47:37;6.18;;;2.10;;
55007;SDS011;40902;45.116;21.296;2024-03-29T00:50:04;8.10;;;2.53;;
55007;SDS011;40902;45.116;21.296;2024-03-29T00:52:30;5.97;;;2.30;;
55007;SDS011;40902;45.116;21.296;2024-03-29T00:54:56;5.93;;;2.70;;
55007;SDS011;40902;45.116;21.296;2024-03-29T00:57:22;6.43;;;2.70;;
55007;SDS011;40902;45.116;21.296;2024-03-29T00:59:48;8.65;;;3.20;;
55007;SDS011;40902;45.116;21.296;2024-03-29T01:02:14;9.40;;;2.58;;
55007;SDS011;40902;45.116;21.296;2024-03-29T01:04:40;5.88;;;2.65;;
55007;SDS011;40902;45.116;21.296;2024-03-29T01:07:07;10.40;;;2.65;;
55007;SDS011;40902;45.116;21.296;2024-03-29T01:09:33;7.47;;;3.03;;
55007;SDS011;40902;45.116;21.296;2024-03-29T01:12:00;8.18;;;2.60;;
55007;SDS011;40902;45.116;21.296;2024-03-29T01:14:26;7.93;;;3.35;;
55007;SDS011;40902;45.116;21.296;2024-03-29T01:16:52;9.05;;;2.58;;
55007;SDS011;40902;45.116;21.296;2024-03-29T01:19:18;4.93;;;2.58;;
55007;SDS011;40902;45.116;21.296;2024-03-29T01:21:44;6.57;;;2.40;;
55007;SDS011;40902;45.116;21.296;2024-03-29T01:24:10;6.32;;;2.35;;
55007;SDS011;40902;45.116;21.296;2024-03-29T01:26:37;7.75;;;2.22;;
55007;SDS011;40902;45.116;21.296;2024-03-29T01:29:03;5.20;;;2.47;;
55007;SDS011;40902;45.116;21.296;2024-03-29T01:31:29;5.55;;;2.55;;
55007;SDS011;40902;45.116;21.296;2024-03-29T01:33:55;7.72;;;2.88;;
55007;SDS011;40902;45.116;21.296;2024-03-29T01:36:23;6.57;;;2.53;;
55007;SDS011;40902;45.116;21.296;2024-03-29T01:38:49;7.68;;;2.60;;
55007;SDS011;40902;45.116;21.296;2024-03-29T01:41:19;6.05;;;2.75;;
55007;SDS011;40902;45.116;21.296;2024-03-29T01:43:45;6.05;;;2.40;;
55007;SDS011;40902;45.116;21.296;2024-03-29T01:46:11;5.03;;;2.13;;
55007;SDS011;40902;45.116;21.296;2024-03-29T01:48:38;5.55;;;2.47;;
55007;SDS011;40902;45.116;21.296;2024-03-29T01:51:04;6.35;;;2.50;;
55007;SDS011;40902;45.116;21.296;2024-03-29T01:53:30;6.50;;;2.08;;
55007;SDS011;40902;45.116;21.296;2024-03-29T01:55:56;5.70;;;2.70;;
55007;SDS011;40902;45.116;21.296;2024-03-29T01:58:23;5.13;;;2.50;;
55007;SDS011;40902;45.116;21.296;2024-03-29T02:00:54;4.35;;;2.20;;
55007;SDS011;40902;45.116;21.296;2024-03-29T02:03:20;6.13;;;2.70;;
55007;SDS011;40902;45.116;21.296;2024-03-29T02:05:48;4.75;;;1.98;;
55007;SDS011;40902;45.116;21.296;2024-03-29T02:08:14;10.07;;;2.42;;
55007;SDS011;40902;45.116;21.296;2024-03-29T02:10:41;4.25;;;2.20;;
55007;SDS011;40902;45.116;21.296;2024-03-29T02:13:08;8.93;;;2.92;;
55007;SDS011;40902;45.116;21.296;2024-03-29T02:15:34;5.50;;;2.20;;
55007;SDS011;40902;45.116;21.296;2024-03-29T02:18:00;5.88;;;2.50;;
55007;SDS011;40902;45.116;21.296;2024-03-29T02:20:26;4.85;;;2.20;;
55007;SDS011;40902;45.116;21.296;2024-03-29T02:23:11;8.20;;;2.55;;
55007;SDS011;40902;45.116;21.296;2024-03-29T02:25:37;10.60;;;3.28;;
55007;SDS011;40902;45.116;21.296;2024-03-29T02:28:03;6.45;;;2.80;;
55007;SDS011;40902;45.116;21.296;2024-03-29T02:30:30;5.65;;;1.85;;
55007;SDS011;40902;45.116;21.296;2024-03-29T02:32:57;6.18;;;2.10;;
55007;SDS011;40902;45.116;21.296;2024-03-29T02:35:25;10.00;;;2.55;;
55007;SDS011;40902;45.116;21.296;2024-03-29T02:37:52;7.75;;;2.25;;
55007;SDS011;40902;45.116;21.296;2024-03-29T02:40:18;6.10;;;2.45;;
55007;SDS011;40902;45.116;21.296;2024-03-29T02:42:44;6.80;;;2.55;;
55007;SDS011;40902;45.116;21.296;2024-03-29T02:45:11;10.15;;;2.55;;
55007;SDS011;40902;45.116;21.296;2024-03-29T02:47:37;6.28;;;2.00;;
55007;SDS011;40902;45.116;21.296;2024-03-29T02:50:02;5.22;;;1.90;;
55007;SDS011;40902;45.116;21.296;2024-03-29T02:52:28;8.75;;;2.00;;
55007;SDS011;40902;45.116;21.296;2024-03-29T02:54:54;5.78;;;2.17;;
55007;SDS011;40902;45.116;21.296;2024-03-29T02:57:20;7.85;;;1.90;;
55007;SDS011;40902;45.116;21.296;2024-03-29T02:59:46;9.65;;;2.10;;
55007;SDS011;40902;45.116;21.296;2024-03-29T03:02:12;6.55;;;1.98;;
55007;SDS011;40902;45.116;21.296;2024-03-29T03:04:37;3.42;;;1.58;;
55007;SDS011;40902;45.116;21.296;2024-03-29T03:07:03;4.88;;;1.60;;
55007;SDS011;40902;45.116;21.296;2024-03-29T03:09:48;4.20;;;1.48;;
55007;SDS011;40902;45.116;21.296;2024-03-29T03:12:32;2.55;;;1.30;;
55007;SDS011;40902;45.116;21.296;2024-03-29T03:14:58;3.63;;;1.42;;
55007;SDS011;40902;45.116;21.296;2024-03-29T03:17:27;3.10;;;1.20;;
55007;SDS011;40902;45.116;21.296;2024-03-29T03:19:54;3.30;;;1.30;;
55007;SDS011;40902;45.116;21.296;2024-03-29T03:22:20;3.75;;;1.30;;
55007;SDS011;40902;45.116;21.296;2024-03-29T03:24:46;2.85;;;1.30;;
55007;SDS011;40902;45.116;21.296;2024-03-29T03:27:12;3.58;;;1.10;;
55007;SDS011;40902;45.116;21.296;2024-03-29T03:29:38;4.63;;;1.17;;
55007;SDS011;40902;45.116;21.296;2024-03-29T03:32:05;1.55;;;0.70;;
55007;SDS011;40902;45.116;21.296;2024-03-29T03:34:31;2.33;;;1.23;;
55007;SDS011;40902;45.116;21.296;2024-03-29T03:36:57;2.28;;;1.30;;
55007;SDS011;40902;45.116;21.296;2024-03-29T03:39:23;1.60;;;1.00;;
55007;SDS011;40902;45.116;21.296;2024-03-29T03:41:50;2.05;;;0.80;;
55007;SDS011;40902;45.116;21.296;2024-03-29T03:44:16;2.22;;;0.75;;
55007;SDS011;40902;45.116;21.296;2024-03-29T03:46:41;1.42;;;0.88;;
55007;SDS011;40902;45.116;21.296;2024-03-29T03:49:08;2.08;;;0.90;;
55007;SDS011;40902;45.116;21.296;2024-03-29T03:51:34;2.03;;;1.00;;
55007;SDS011;40902;45.116;21.296;2024-03-29T03:54:00;1.13;;;0.70;;
55007;SDS011;40902;45.116;21.296;2024-03-29T03:56:26;1.50;;;0.98;;
55007;SDS011;40902;45.116;21.296;2024-03-29T03:58:52;1.35;;;0.90;;
55007;SDS011;40902;45.116;21.296;2024-03-29T04:01:18;2.50;;;0.90;;
55007;SDS011;40902;45.116;21.296;2024-03-29T04:03:45;2.03;;;0.80;;
55007;SDS011;40902;45.116;21.296;2024-03-29T04:06:11;2.78;;;1.10;;
55007;SDS011;40902;45.116;21.296;2024-03-29T04:08:37;1.45;;;0.77;;
55007;SDS011;40902;45.116;21.296;2024-03-29T04:11:04;1.52;;;0.73;;
55007;SDS011;40902;45.116;21.296;2024-03-29T04:13:30;1.00;;;0.80;;
55007;SDS011;40902;45.116;21.296;2024-03-29T04:16:03;1.65;;;1.13;;
55007;SDS011;40902;45.116;21.296;2024-03-29T04:18:30;4.63;;;1.13;;
55007;SDS011;40902;45.116;21.296;2024-03-29T04:20:57;2.55;;;0.90;;
55007;SDS011;40902;45.116;21.296;2024-03-29T04:23:23;1.30;;;0.80;;
55007;SDS011;40902;45.116;21.296;2024-03-29T04:25:58;1.92;;;0.88;;
55007;SDS011;40902;45.116;21.296;2024-03-29T04:28:25;1.70;;;1.10;;
55007;SDS011;40902;45.116;21.296;2024-03-29T04:30:55;2.35;;;1.20;;
55007;SDS011;40902;45.116;21.296;2024-03-29T04:33:22;2.67;;;0.95;;
55007;SDS011;40902;45.116;21.296;2024-03-29T04:36:06;1.92;;;1.08;;
55007;SDS011;40902;45.116;21.296;2024-03-29T04:38:33;3.55;;;1.77;;
55007;SDS011;40902;45.116;21.296;2024-03-29T04:41:00;2.90;;;1.50;;
55007;SDS011;40902;45.116;21.296;2024-03-29T04:43:26;2.60;;;1.70;;
55007;SDS011;40902;45.116;21.296;2024-03-29T04:46:03;3.35;;;1.67;;
55007;SDS011;40902;45.116;21.296;2024-03-29T04:48:29;2.28;;;1.40;;
55007;SDS011;40902;45.116;21.296;2024-03-29T04:50:56;3.03;;;0.95;;
55007;SDS011;40902;45.116;21.296;2024-03-29T04:53:22;3.60;;;0.80;;
55007;SDS011;40902;45.116;21.296;2024-03-29T04:55:55;3.17;;;1.00;;
55007;SDS011;40902;45.116;21.296;2024-03-29T04:58:22;2.20;;;0.82;;
55007;SDS011;40902;45.116;21.296;2024-03-29T05:00:51;2.00;;;0.90;;
55007;SDS011;40902;45.116;21.296;2024-03-29T05:03:18;2.17;;;1.00;;
55007;SDS011;40902;45.116;21.296;2024-03-29T05:05:45;2.20;;;0.90;;
55007;SDS011;40902;45.116;21.296;2024-03-29T05:08:11;2.83;;;1.10;;
55007;SDS011;40902;45.116;21.296;2024-03-29T05:10:38;2.88;;;1.30;;
55007;SDS011;40902;45.116;21.296;2024-03-29T05:13:04;2.90;;;1.20;;
55007;SDS011;40902;45.116;21.296;2024-03-29T05:15:31;2.30;;;1.30;;
55007;SDS011;40902;45.116;21.296;2024-03-29T05:17:57;2.78;;;1.40;;
55007;SDS011;40902;45.116;21.296;2024-03-29T05:20:23;2.42;;;1.38;;
55007;SDS011;40902;45.116;21.296;2024-03-29T05:22:50;2.50;;;1.30;;
55007;SDS011;40902;45.116;21.296;2024-03-29T05:25:16;2.63;;;1.35;;
55007;SDS011;40902;45.116;21.296;2024-03-29T05:27:42;4.95;;;1.25;;
55007;SDS011;40902;45.116;21.296;2024-03-29T05:30:08;3.33;;;1.50;;
55007;SDS011;40902;45.116;21.296;2024-03-29T05:32:38;2.60;;;1.35;;
55007;SDS011;40902;45.116;21.296;2024-03-29T05:35:04;2.40;;;1.30;;
55007;SDS011;40902;45.116;21.296;2024-03-29T05:37:30;2.15;;;1.15;;
55007;SDS011;40902;45.116;21.296;2024-03-29T05:39:57;3.35;;;1.73;;
55007;SDS011;40902;45.116;21.296;2024-03-29T05:42:29;5.85;;;2.28;;
55007;SDS011;40902;45.116;21.296;2024-03-29T05:44:56;3.63;;;1.70;;
55007;SDS011;40902;45.116;21.296;2024-03-29T05:47:22;2.28;;;1.13;;
55007;SDS011;40902;45.116;21.296;2024-03-29T05:49:48;2.15;;;1.02;;
55007;SDS011;40902;45.116;21.296;2024-03-29T05:52:15;4.20;;;1.17;;
55007;SDS011;40902;45.116;21.296;2024-03-29T05:54:45;4.28;;;1.33;;
55007;SDS011;40902;45.116;21.296;2024-03-29T05:57:11;5.97;;;1.52;;
55007;SDS011;40902;45.116;21.296;2024-03-29T05:59:37;4.88;;;1.50;;
55007;SDS011;40902;45.116;21.296;2024-03-29T06:02:04;4.68;;;1.50;;
55007;SDS011;40902;45.116;21.296;2024-03-29T06:04:30;3.10;;;1.30;;
55007;SDS011;40902;45.116;21.296;2024-03-29T06:07:03;2.75;;;1.20;;
55007;SDS011;40902;45.116;21.296;2024-03-29T06:09:30;2.60;;;1.20;;
55007;SDS011;40902;45.116;21.296;2024-03-29T06:11:58;2.85;;;1.48;;
55007;SDS011;40902;45.116;21.296;2024-03-29T06:14:25;3.17;;;1.40;;
55007;SDS011;40902;45.116;21.296;2024-03-29T06:17:10;2.60;;;1.35;;
55007;SDS011;40902;45.116;21.296;2024-03-29T06:19:51;2.58;;;1.10;;
55007;SDS011;40902;45.116;21.296;2024-03-29T06:22:20;2.03;;;1.20;;
55007;SDS011;40902;45.116;21.296;2024-03-29T06:24:47;4.40;;;1.40;;
55007;SDS011;40902;45.116;21.296;2024-03-29T06:27:13;4.57;;;1.45;;
55007;SDS011;40902;45.116;21.296;2024-03-29T06:29:42;3.13;;;1.33;;
55007;SDS011;40902;45.116;21.296;2024-03-29T06:32:09;3.08;;;1.40;;
55007;SDS011;40902;45.116;21.296;2024-03-29T06:34:35;3.45;;;1.50;;
55007;SDS011;40902;45.116;21.296;2024-03-29T06:37:01;4.38;;;1.48;;
55007;SDS011;40902;45.116;21.296;2024-03-29T06:39:27;3.65;;;1.65;;
55007;SDS011;40902;45.116;21.296;2024-03-29T06:41:53;2.80;;;1.40;;
55007;SDS011;40902;45.116;21.296;2024-03-29T06:44:19;2.17;;;1.30;;
55007;SDS011;40902;45.116;21.296;2024-03-29T06:46:46;4.05;;;1.42;;
55007;SDS011;40902;45.116;21.296;2024-03-29T06:49:12;6.85;;;1.58;;
55007;SDS011;40902;45.116;21.296;2024-03-29T06:51:39;3.22;;;1.30;;
55007;SDS011;40902;45.116;21.296;2024-03-29T06:54:05;4.30;;;1.30;;
55007;SDS011;40902;45.116;21.296;2024-03-29T06:56:31;5.10;;;1.63;;
55007;SDS011;40902;45.116;21.296;2024-03-29T06:58:58;4.75;;;1.55;;
55007;SDS011;40902;45.116;21.296;2024-03-29T07:01:24;3.40;;;1.65;;
55007;SDS011;40902;45.116;21.296;2024-03-29T07:03:50;3.85;;;1.63;;
55007;SDS011;40902;45.116;21.296;2024-03-29T07:06:15;6.10;;;1.88;;
55007;SDS011;40902;45.116;21.296;2024-03-29T07:08:41;5.78;;;1.80;;
55007;SDS011;40902;45.116;21.296;2024-03-29T07:11:07;3.42;;;1.75;;
55007;SDS011;40902;45.116;21.296;2024-03-29T07:13:33;3.67;;;1.80;;
55007;SDS011;40902;45.116;21.296;2024-03-29T07:15:59;5.18;;;1.70;;
55007;SDS011;40902;45.116;21.296;2024-03-29T07:18:25;7.32;;;1.65;;
55007;SDS011;40902;45.116;21.296;2024-03-29T07:20:52;6.78;;;1.70;;
55007;SDS011;40902;45.116;21.296;2024-03-29T07:23:17;4.28;;;1.70;;
55007;SDS011;40902;45.116;21.296;2024-03-29T07:25:44;4.03;;;1.60;;
55007;SDS011;40902;45.116;21.296;2024-03-29T07:28:10;5.45;;;1.90;;
55007;SDS011;40902;45.116;21.296;2024-03-29T07:30:40;2.85;;;1.50;;
55007;SDS011;40902;45.116;21.296;2024-03-29T07:33:06;6.18;;;1.80;;
55007;SDS011;40902;45.116;21.296;2024-03-29T07:35:34;3.72;;;1.80;;
55007;SDS011;40902;45.116;21.296;2024-03-29T07:38:00;4.63;;;1.55;;
55007;SDS011;40902;45.116;21.296;2024-03-29T07:40:26;4.40;;;1.73;;
55007;SDS011;40902;45.116;21.296;2024-03-29T07:42:51;5.13;;;2.55;;
55007;SDS011;40902;45.116;21.296;2024-03-29T07:45:17;5.20;;;1.88;;
55007;SDS011;40902;45.116;21.296;2024-03-29T07:47:43;3.72;;;1.60;;
55007;SDS011;40902;45.116;21.296;2024-03-29T07:50:09;5.38;;;1.90;;
55007;SDS011;40902;45.116;21.296;2024-03-29T07:52:35;5.75;;;2.05;;
55007;SDS011;40902;45.116;21.296;2024-03-29T07:55:01;4.25;;;1.75;;
55007;SDS011;40902;45.116;21.296;2024-03-29T07:57:27;3.28;;;1.55;;
55007;SDS011;40902;45.116;21.296;2024-03-29T07:59:53;5.70;;;1.70;;
55007;SDS011;40902;45.116;21.296;2024-03-29T08:02:19;5.68;;;1.60;;
55007;SDS011;40902;45.116;21.296;2024-03-29T08:04:45;5.35;;;1.75;;
55007;SDS011;40902;45.116;21.296;2024-03-29T08:07:11;5.32;;;1.67;;
55007;SDS011;40902;45.116;21.296;2024-03-29T08:09:38;4.88;;;1.95;;
55007;SDS011;40902;45.116;21.296;2024-03-29T08:12:04;4.05;;;1.90;;
55007;SDS011;40902;45.116;21.296;2024-03-29T08:14:31;5.85;;;1.73;;
55007;SDS011;40902;45.116;21.296;2024-03-29T08:16:57;5.43;;;2.10;;
55007;SDS011;40902;45.116;21.296;2024-03-29T08:19:27;4.78;;;1.75;;
55007;SDS011;40902;45.116;21.296;2024-03-29T08:21:53;6.22;;;2.17;;
55007;SDS011;40902;45.116;21.296;2024-03-29T08:24:19;5.47;;;1.95;;
55007;SDS011;40902;45.116;21.296;2024-03-29T08:26:44;5.00;;;1.92;;
55007;SDS011;40902;45.116;21.296;2024-03-29T08:29:10;5.15;;;1.98;;
55007;SDS011;40902;45.116;21.296;2024-03-29T08:31:36;5.78;;;1.90;;
55007;SDS011;40902;45.116;21.296;2024-03-29T08:34:02;3.75;;;1.60;;
55007;SDS011;40902;45.116;21.296;2024-03-29T08:36:28;5.28;;;2.33;;
55007;SDS011;40902;45.116;21.296;2024-03-29T08:38:54;4.68;;;1.73;;
55007;SDS011;40902;45.116;21.296;2024-03-29T08:41:20;4.47;;;1.77;;
55007;SDS011;40902;45.116;21.296;2024-03-29T08:43:46;4.72;;;1.73;;
55007;SDS011;40902;45.116;21.296;2024-03-29T08:46:11;21.70;;;2.10;;
55007;SDS011;40902;45.116;21.296;2024-03-29T08:48:37;6.07;;;1.75;;
55007;SDS011;40902;45.116;21.296;2024-03-29T08:51:07;5.28;;;1.90;;
55007;SDS011;40902;45.116;21.296;2024-03-29T08:53:33;5.00;;;1.77;;
55007;SDS011;40902;45.116;21.296;2024-03-29T08:55:59;7.20;;;2.22;;
55007;SDS011;40902;45.116;21.296;2024-03-29T08:58:25;5.10;;;1.80;;
55007;SDS011;40902;45.116;21.296;2024-03-29T09:00:54;7.20;;;2.00;;
55007;SDS011;40902;45.116;21.296;2024-03-29T09:03:21;7.43;;;2.00;;
55007;SDS011;40902;45.116;21.296;2024-03-29T09:05:48;6.80;;;1.90;;
55007;SDS011;40902;45.116;21.296;2024-03-29T09:08:14;5.45;;;1.52;;
55007;SDS011;40902;45.116;21.296;2024-03-29T09:10:41;10.15;;;2.47;;
55007;SDS011;40902;45.116;21.296;2024-03-29T09:13:07;7.45;;;1.98;;
55007;SDS011;40902;45.116;21.296;2024-03-29T09:15:34;6.93;;;2.15;;
55007;SDS011;40902;45.116;21.296;2024-03-29T09:18:00;6.03;;;1.98;;
55007;SDS011;40902;45.116;21.296;2024-03-29T09:20:34;5.07;;;1.88;;
55007;SDS011;40902;45.116;21.296;2024-03-29T09:23:01;6.22;;;1.80;;
55007;SDS011;40902;45.116;21.296;2024-03-29T09:25:27;4.93;;;1.60;;
55007;SDS011;40902;45.116;21.296;2024-03-29T09:27:53;4.13;;;1.80;;
55007;SDS011;40902;45.116;21.296;2024-03-29T09:30:19;6.32;;;1.95;;
55007;SDS011;40902;45.116;21.296;2024-03-29T09:32:48;6.65;;;2.45;;
55007;SDS011;40902;45.116;21.296;2024-03-29T09:35:17;5.70;;;1.70;;
55007;SDS011;40902;45.116;21.296;2024-03-29T09:37:44;7.53;;;1.88;;
55007;SDS011;40902;45.116;21.296;2024-03-29T09:40:11;6.72;;;2.15;;
55007;SDS011;40902;45.116;21.296;2024-03-29T09:42:38;6.35;;;2.13;;
55007;SDS011;40902;45.116;21.296;2024-03-29T09:45:05;8.18;;;2.10;;
55007;SDS011;40902;45.116;21.296;2024-03-29T09:47:32;6.45;;;1.98;;
55007;SDS011;40902;45.116;21.296;2024-03-29T09:49:59;5.70;;;2.00;;
55007;SDS011;40902;45.116;21.296;2024-03-29T09:52:29;4.05;;;1.55;;
55007;SDS011;40902;45.116;21.296;2024-03-29T09:55:00;4.35;;;1.75;;
55007;SDS011;40902;45.116;21.296;2024-03-29T09:57:32;6.03;;;1.90;;
55007;SDS011;40902;45.116;21.296;2024-03-29T09:59:58;7.55;;;1.70;;
55007;SDS011;40902;45.116;21.296;2024-03-29T10:02:27;6.85;;;2.30;;
55007;SDS011;40902;45.116;21.296;2024-03-29T10:04:53;6.05;;;2.10;;
55007;SDS011;40902;45.116;21.296;2024-03-29T10:07:22;7.05;;;2.13;;
55007;SDS011;40902;45.116;21.296;2024-03-29T10:09:50;6.60;;;1.92;;
55007;SDS011;40902;45.116;21.296;2024-03-29T10:12:20;5.68;;;1.75;;
55007;SDS011;40902;45.116;21.296;2024-03-29T10:14:46;5.28;;;2.05;;
55007;SDS011;40902;45.116;21.296;2024-03-29T10:17:25;5.22;;;2.20;;
55007;SDS011;40902;45.116;21.296;2024-03-29T10:19:51;6.35;;;1.90;;
55007;SDS011;40902;45.116;21.296;2024-03-29T10:22:19;7.70;;;1.80;;
55007;SDS011;40902;45.116;21.296;2024-03-29T10:24:58;8.02;;;2.50;;
55007;SDS011;40902;45.116;21.296;2024-03-29T10:27:27;5.05;;;1.95;;
55007;SDS011;40902;45.116;21.296;2024-03-29T10:29:54;5.78;;;2.10;;
55007;SDS011;40902;45.116;21.296;2024-03-29T10:32:23;6.13;;;2.00;;
55007;SDS011;40902;45.116;21.296;2024-03-29T10:34:52;5.30;;;2.00;;
55007;SDS011;40902;45.116;21.296;2024-03-29T10:37:28;6.15;;;2.28;;
55007;SDS011;40902;45.116;21.296;2024-03-29T10:40:12;6.32;;;1.98;;
55007;SDS011;40902;45.116;21.296;2024-03-29T10:42:44;8.50;;;2.42;;
55007;SDS011;40902;45.116;21.296;2024-03-29T10:45:13;10.65;;;2.15;;
55007;SDS011;40902;45.116;21.296;2024-03-29T10:47:41;5.88;;;2.28;;
55007;SDS011;40902;45.116;21.296;2024-03-29T10:50:10;7.55;;;2.10;;
55007;SDS011;40902;45.116;21.296;2024-03-29T10:52:40;7.75;;;2.40;;
55007;SDS011;40902;45.116;21.296;2024-03-29T10:55:09;6.05;;;2.63;;
55007;SDS011;40902;45.116;21.296;2024-03-29T10:57:41;8.43;;;2.07;;
55007;SDS011;40902;45.116;21.296;2024-03-29T11:02:45;8.88;;;2.28;;
55007;SDS011;40902;45.116;21.296;2024-03-29T11:05:16;5.70;;;1.98;;
55007;SDS011;40902;45.116;21.296;2024-03-29T11:07:43;8.98;;;2.55;;
55007;SDS011;40902;45.116;21.296;2024-03-29T11:10:20;4.95;;;1.85;;
55007;SDS011;40902;45.116;21.296;2024-03-29T11:12:58;6.10;;;1.83;;
55007;SDS011;40902;45.116;21.296;2024-03-29T11:15:29;6.18;;;2.17;;
55007;SDS011;40902;45.116;21.296;2024-03-29T11:17:56;7.57;;;2.40;;
55007;SDS011;40902;45.116;21.296;2024-03-29T11:20:27;7.03;;;2.35;;
55007;SDS011;40902;45.116;21.296;2024-03-29T11:23:06;6.97;;;1.85;;
55007;SDS011;40902;45.116;21.296;2024-03-29T11:25:43;8.73;;;2.30;;
55007;SDS011;40902;45.116;21.296;2024-03-29T11:30:52;5.95;;;2.10;;
55007;SDS011;40902;45.116;21.296;2024-03-29T11:33:31;8.70;;;2.35;;
55007;SDS011;40902;45.116;21.296;2024-03-29T11:35:58;9.75;;;3.10;;
55007;SDS011;40902;45.116;21.296;2024-03-29T11:38:31;9.32;;;2.60;;
55007;SDS011;40902;45.116;21.296;2024-03-29T11:43:28;6.75;;;2.45;;
55007;SDS011;40902;45.116;21.296;2024-03-29T11:45:55;7.07;;;2.15;;
55007;SDS011;40902;45.116;21.296;2024-03-29T11:48:22;8.52;;;2.58;;
55007;SDS011;40902;45.116;21.296;2024-03-29T11:50:52;7.20;;;2.50;;
55007;SDS011;40902;45.116;21.296;2024-03-29T11:53:26;7.50;;;2.22;;
55007;SDS011;40902;45.116;21.296;2024-03-29T11:55:53;9.85;;;2.70;;
55007;SDS011;40902;45.116;21.296;2024-03-29T11:58:23;8.52;;;2.03;;
55007;SDS011;40902;45.116;21.296;2024-03-29T12:00:49;6.75;;;2.10;;
55007;SDS011;40902;45.116;21.296;2024-03-29T12:03:16;9.95;;;3.10;;
55007;SDS011;40902;45.116;21.296;2024-03-29T12:05:46;9.65;;;2.92;;
55007;SDS011;40902;45.116;21.296;2024-03-29T12:08:13;9.43;;;2.80;;
55007;SDS011;40902;45.116;21.296;2024-03-29T12:10:44;6.30;;;2.20;;
55007;SDS011;40902;45.116;21.296;2024-03-29T12:13:10;11.95;;;3.17;;
55007;SDS011;40902;45.116;21.296;2024-03-29T12:15:37;6.80;;;2.60;;
55007;SDS011;40902;45.116;21.296;2024-03-29T12:18:04;8.93;;;2.45;;
55007;SDS011;40902;45.116;21.296;2024-03-29T12:20:38;9.38;;;2.90;;
55007;SDS011;40902;45.116;21.296;2024-03-29T12:23:05;12.00;;;2.80;;
55007;SDS011;40902;45.116;21.296;2024-03-29T12:25:32;8.00;;;2.83;;
55007;SDS011;40902;45.116;21.296;2024-03-29T12:27:59;9.98;;;2.85;;
55007;SDS011;40902;45.116;21.296;2024-03-29T12:30:25;6.70;;;2.10;;
55007;SDS011;40902;45.116;21.296;2024-03-29T12:35:28;13.55;;;2.67;;
55007;SDS011;40902;45.116;21.296;2024-03-29T12:37:57;9.65;;;2.20;;
55007;SDS011;40902;45.116;21.296;2024-03-29T12:40:24;6.97;;;2.05;;
55007;SDS011;40902;45.116;21.296;2024-03-29T12:42:51;8.70;;;2.30;;
55007;SDS011;40902;45.116;21.296;2024-03-29T12:45:18;8.82;;;2.35;;
55007;SDS011;40902;45.116;21.296;2024-03-29T12:47:47;5.75;;;2.10;;
55007;SDS011;40902;45.116;21.296;2024-03-29T12:50:24;6.55;;;2.20;;
55007;SDS011;40902;45.116;21.296;2024-03-29T12:52:53;8.90;;;2.40;;
55007;SDS011;40902;45.116;21.296;2024-03-29T12:55:19;7.20;;;2.22;;
55007;SDS011;40902;45.116;21.296;2024-03-29T12:57:46;6.47;;;2.17;;
55007;SDS011;40902;45.116;21.296;2024-03-29T13:00:18;7.20;;;2.28;;
55007;SDS011;40902;45.116;21.296;2024-03-29T13:02:45;8.75;;;2.97;;
55007;SDS011;40902;45.116;21.296;2024-03-29T13:05:11;7.75;;;2.85;;
55007;SDS011;40902;45.116;21.296;2024-03-29T13:07:42;11.65;;;5.03;;
55007;SDS011;40902;45.116;21.296;2024-03-29T13:10:08;9.82;;;3.08;;
55007;SDS011;40902;45.116;21.296;2024-03-29T13:12:45;8.32;;;2.70;;
55007;SDS011;40902;45.116;21.296;2024-03-29T13:15:31;7.50;;;2.40;;
55007;SDS011;40902;45.116;21.296;2024-03-29T13:18:03;9.45;;;3.20;;
55007;SDS011;40902;45.116;21.296;2024-03-29T13:20:30;8.40;;;2.25;;
55007;SDS011;40902;45.116;21.296;2024-03-29T13:23:01;10.10;;;2.33;;
55007;SDS011;40902;45.116;21.296;2024-03-29T13:25:28;7.05;;;2.60;;
55007;SDS011;40902;45.116;21.296;2024-03-29T13:27:54;7.93;;;2.85;;
55007;SDS011;40902;45.116;21.296;2024-03-29T13:30:23;6.32;;;2.60;;
55007;SDS011;40902;45.116;21.296;2024-03-29T13:32:50;6.85;;;2.95;;
55007;SDS011;40902;45.116;21.296;2024-03-29T13:35:17;10.85;;;3.38;;
55007;SDS011;40902;45.116;21.296;2024-03-29T13:37:46;4.65;;;2.03;;
55007;SDS011;40902;45.116;21.296;2024-03-29T13:40:13;6.07;;;2.15;;
55007;SDS011;40902;45.116;21.296;2024-03-29T13:42:39;7.25;;;2.22;;
55007;SDS011;40902;45.116;21.296;2024-03-29T13:45:06;9.00;;;2.88;;
55007;SDS011;40902;45.116;21.296;2024-03-29T13:47:36;6.70;;;2.63;;
55007;SDS011;40902;45.116;21.296;2024-03-29T13:50:02;8.32;;;2.70;;
55007;SDS011;40902;45.116;21.296;2024-03-29T13:52:29;6.10;;;2.38;;
55007;SDS011;40902;45.116;21.296;2024-03-29T13:54:55;7.25;;;2.78;;
55007;SDS011;40902;45.116;21.296;2024-03-29T13:57:27;8.43;;;2.80;;
55007;SDS011;40902;45.116;21.296;2024-03-29T13:59:53;8.63;;;2.92;;
55007;SDS011;40902;45.116;21.296;2024-03-29T14:02:19;4.95;;;2.00;;
55007;SDS011;40902;45.116;21.296;2024-03-29T14:04:46;8.30;;;2.13;;
55007;SDS011;40902;45.116;21.296;2024-03-29T14:07:13;7.57;;;2.38;;
55007;SDS011;40902;45.116;21.296;2024-03-29T14:09:40;7.45;;;2.17;;
55007;SDS011;40902;45.116;21.296;2024-03-29T14:12:07;7.32;;;2.25;;
55007;SDS011;40902;45.116;21.296;2024-03-29T14:14:33;6.07;;;2.08;;
55007;SDS011;40902;45.116;21.296;2024-03-29T14:17:00;7.20;;;2.10;;
55007;SDS011;40902;45.116;21.296;2024-03-29T14:19:33;6.72;;;2.00;;
55007;SDS011;40902;45.116;21.296;2024-03-29T14:22:00;7.40;;;2.17;;
55007;SDS011;40902;45.116;21.296;2024-03-29T14:24:26;5.97;;;2.13;;
55007;SDS011;40902;45.116;21.296;2024-03-29T14:26:53;5.93;;;2.15;;
55007;SDS011;40902;45.116;21.296;2024-03-29T14:29:20;5.75;;;1.92;;
55007;SDS011;40902;45.116;21.296;2024-03-29T14:31:49;6.88;;;2.70;;
55007;SDS011;40902;45.116;21.296;2024-03-29T14:34:16;8.77;;;2.20;;
55007;SDS011;40902;45.116;21.296;2024-03-29T14:36:42;5.80;;;2.25;;
55007;SDS011;40902;45.116;21.296;2024-03-29T14:39:08;9.18;;;2.53;;
55007;SDS011;40902;45.116;21.296;2024-03-29T14:41:37;6.90;;;1.98;;
55007;SDS011;40902;45.116;21.296;2024-03-29T14:44:05;8.30;;;2.45;;
55007;SDS011;40902;45.116;21.296;2024-03-29T14:46:32;8.95;;;2.28;;